¿Dónde queda Lac Kuugajaakallaup Tasinga en Canadá?

 

Lac Kuugajaakallaup Tasinga está situado en la región Quebec en Canadá!

Buscar el nombre de una ciudad:

Lac Parkes, Lac Caméo, Lac Ti-Nel, Lac de la Laine de Bois, Lac Jannée

Aquí usted encontrará la ubicación de Lac Kuugajaakallaup Tasinga en un mapa.
Para ver cómo se ve en la actualidad, a continuación hay algunas fotos de la región con cámaras web en línea.
También puede encontrar la distancia a las principales ciudades de la región y para las ciudades en el resto de Canadá.

Todos los lugares del mundo llamados .


¿Dónde queda Lac Kuugajaakallaup Tasinga en el mapa?




Webcams cerca de Lac Kuugajaakallaup Tasinga

Random webcams:
(Lo sentimos, pero no hay webcams registrados en webcams.travel dentro de 250 km de Lac Kuugajaakallaup Tasinga)

Benavente > North-East: AIrport, METAR: BENAV 180005Z 36004KT 17/14 Q1015.


Benavente > North-East: AIrport, METAR: BENAV 180005Z 36004KT 17/14 Q1015 - El día
Actuales
Benavente > North-East: AIrport, METAR: BENAV 180005Z 36004KT 17/14 Q1015 - Actuales

Kamyanets-Podilsky > North-East: Khmelnytskyi - KP Crossroads.


Kamyanets-Podilsky > North-East: Khmelnytskyi - KP Crossroads - El día
Actuales
Kamyanets-Podilsky > North-East: Khmelnytskyi - KP Crossroads - Actuales

Saint-Jean-de-la-Ruelle: Orlean - Orlans-Bif. A10/A71 prs d'Orlans, vue oriente vers Orlans 2.


Saint-Jean-de-la-Ruelle: Orlean - Orlans-Bif. A10/A71 prs d'Orlans, vue oriente vers Orlans 2 - El día
Actuales
Saint-Jean-de-la-Ruelle: Orlean - Orlans-Bif. A10/A71 prs d'Orlans, vue oriente vers Orlans 2 - Actuales

Webcams provided by webcams.travel


Distancias

¿Dónde queda Lac Kuugajaakallaup Tasinga en relación con otros lugares?

Top 10 ciudades en Quebec y la distancia de Lac Kuugajaakallaup Tasinga.

Ciudad#Poblaciónkmmillas
Montreal132685131479919
Quebec26456231376855
Sherbrooke31294471514941
Trois-Rivières41196931400870
Drummondville5594891452902
Saint-Jérôme6549481444897
Granby7539791503934
Saint-Hyacinthe8503271473915
Shawinigan9491611376855
Beloeil10430161476917

Top 10 ciudades en Canadá y la distancia de Lac Kuugajaakallaup Tasinga.

Ciudad # Poblaciónkmmillas
Toronto1461218716621033
Montreal232685131479919
Vancouver3183797030881919
Calgary496847524451519
Ottawa58744331468912
Edmonton682231922681409
Hamilton765363717111063
Quebec86456231376855
Winnipeg96320691587986
Kitchener1040911116931052



Alertas y advertencias en Canadá

Asesoramiento e información sobre viajes y seguridad en Canadá

Con una advertencia de viaje, los turistas pueden ser informados de los riesgos de seguridad durante las vacaciones o de viaje en un país extranjero.Estar informado acerca de los riesgos de secuestro, robo a mano armada, atentados, catástrofes naturales o guerras. No saben qué áreas son seguras en Canadá. Estar alerta, o evitar ciertas áreas cuando está de vacaciones en Canadá.

Alertas y advertencias



Información de viajes Canadá

Información sobre documentos de viaje, solicitudes de visados y el costo de una visa.
Información de Contacto embajadas en Canadá.
Los diferentes tipos de seguro de viaje.

Información de viajes

Info

Estadística y Geografía

Canadá se compone de 5521 ciudades en 13 regiones.

La región Quebec tiene 1049 ciudades.

¿Dónde queda Lac Kuugajaakallaup Tasinga en Canadá?